sensor_id;sensor_type;location;lat;lon;timestamp;P1;durP1;ratioP1;P2;durP2;ratioP2
53044;SDS011;38930;52.766;6.884;2023-04-24T00:01:39;3.80;;;2.20;;
53044;SDS011;38930;52.766;6.884;2023-04-24T00:04:05;2.88;;;2.15;;
53044;SDS011;38930;52.766;6.884;2023-04-24T00:06:32;3.08;;;2.30;;
53044;SDS011;38930;52.766;6.884;2023-04-24T00:09:01;2.65;;;2.38;;
53044;SDS011;38930;52.766;6.884;2023-04-24T00:11:28;3.03;;;2.38;;
53044;SDS011;38930;52.766;6.884;2023-04-24T00:13:54;3.05;;;2.33;;
53044;SDS011;38930;52.766;6.884;2023-04-24T00:16:21;3.58;;;2.60;;
53044;SDS011;38930;52.766;6.884;2023-04-24T00:18:46;4.65;;;2.70;;
53044;SDS011;38930;52.766;6.884;2023-04-24T00:21:13;2.80;;;2.30;;
53044;SDS011;38930;52.766;6.884;2023-04-24T00:23:42;3.42;;;2.80;;
53044;SDS011;38930;52.766;6.884;2023-04-24T00:26:08;3.37;;;2.73;;
53044;SDS011;38930;52.766;6.884;2023-04-24T00:28:34;3.10;;;2.67;;
53044;SDS011;38930;52.766;6.884;2023-04-24T00:31:00;3.25;;;2.40;;
53044;SDS011;38930;52.766;6.884;2023-04-24T00:33:25;2.20;;;1.90;;
53044;SDS011;38930;52.766;6.884;2023-04-24T00:35:51;2.55;;;2.20;;
53044;SDS011;38930;52.766;6.884;2023-04-24T00:38:17;2.47;;;1.98;;
53044;SDS011;38930;52.766;6.884;2023-04-24T00:40:43;3.67;;;1.60;;
53044;SDS011;38930;52.766;6.884;2023-04-24T00:43:09;2.30;;;1.90;;
53044;SDS011;38930;52.766;6.884;2023-04-24T00:45:34;2.70;;;1.63;;
53044;SDS011;38930;52.766;6.884;2023-04-24T00:48:01;1.80;;;1.50;;
53044;SDS011;38930;52.766;6.884;2023-04-24T00:50:27;2.20;;;1.60;;
53044;SDS011;38930;52.766;6.884;2023-04-24T00:52:53;2.53;;;1.67;;
53044;SDS011;38930;52.766;6.884;2023-04-24T00:55:19;1.90;;;1.50;;
53044;SDS011;38930;52.766;6.884;2023-04-24T00:57:45;2.95;;;1.60;;
53044;SDS011;38930;52.766;6.884;2023-04-24T01:02:43;2.08;;;1.70;;
53044;SDS011;38930;52.766;6.884;2023-04-24T01:05:10;2.45;;;1.90;;
53044;SDS011;38930;52.766;6.884;2023-04-24T01:07:40;2.03;;;1.67;;
53044;SDS011;38930;52.766;6.884;2023-04-24T01:10:10;2.53;;;1.95;;
53044;SDS011;38930;52.766;6.884;2023-04-24T01:12:37;2.55;;;1.92;;
53044;SDS011;38930;52.766;6.884;2023-04-24T01:15:03;2.42;;;2.08;;
53044;SDS011;38930;52.766;6.884;2023-04-24T01:17:30;2.85;;;2.30;;
53044;SDS011;38930;52.766;6.884;2023-04-24T01:19:56;3.15;;;2.20;;
53044;SDS011;38930;52.766;6.884;2023-04-24T01:22:22;3.92;;;2.35;;
53044;SDS011;38930;52.766;6.884;2023-04-24T01:24:47;3.25;;;2.20;;
53044;SDS011;38930;52.766;6.884;2023-04-24T01:27:13;2.83;;;2.10;;
53044;SDS011;38930;52.766;6.884;2023-04-24T01:29:39;3.33;;;2.65;;
53044;SDS011;38930;52.766;6.884;2023-04-24T01:32:06;3.13;;;2.50;;
53044;SDS011;38930;52.766;6.884;2023-04-24T01:34:32;3.60;;;2.67;;
53044;SDS011;38930;52.766;6.884;2023-04-24T01:36:59;3.33;;;2.70;;
53044;SDS011;38930;52.766;6.884;2023-04-24T01:39:25;3.90;;;2.90;;
53044;SDS011;38930;52.766;6.884;2023-04-24T01:41:53;4.47;;;3.10;;
53044;SDS011;38930;52.766;6.884;2023-04-24T01:44:20;3.70;;;2.88;;
53044;SDS011;38930;52.766;6.884;2023-04-24T01:46:46;5.07;;;3.50;;
53044;SDS011;38930;52.766;6.884;2023-04-24T01:49:11;4.75;;;3.72;;
53044;SDS011;38930;52.766;6.884;2023-04-24T01:51:37;5.75;;;4.28;;
53044;SDS011;38930;52.766;6.884;2023-04-24T01:54:03;8.20;;;4.35;;
53044;SDS011;38930;52.766;6.884;2023-04-24T01:56:29;6.72;;;4.70;;
53044;SDS011;38930;52.766;6.884;2023-04-24T01:58:55;7.43;;;5.18;;
53044;SDS011;38930;52.766;6.884;2023-04-24T02:01:23;6.78;;;5.47;;
53044;SDS011;38930;52.766;6.884;2023-04-24T02:03:49;10.88;;;5.40;;
53044;SDS011;38930;52.766;6.884;2023-04-24T02:06:15;8.10;;;5.47;;
53044;SDS011;38930;52.766;6.884;2023-04-24T02:08:41;7.53;;;5.40;;
53044;SDS011;38930;52.766;6.884;2023-04-24T02:11:08;9.40;;;5.40;;
53044;SDS011;38930;52.766;6.884;2023-04-24T02:13:34;7.22;;;4.97;;
53044;SDS011;38930;52.766;6.884;2023-04-24T02:16:00;6.57;;;4.30;;
53044;SDS011;38930;52.766;6.884;2023-04-24T02:18:26;6.80;;;4.68;;
53044;SDS011;38930;52.766;6.884;2023-04-24T02:20:51;5.13;;;4.30;;
53044;SDS011;38930;52.766;6.884;2023-04-24T02:23:17;7.22;;;4.95;;
53044;SDS011;38930;52.766;6.884;2023-04-24T02:25:42;6.38;;;4.65;;
53044;SDS011;38930;52.766;6.884;2023-04-24T02:28:08;5.75;;;4.35;;
53044;SDS011;38930;52.766;6.884;2023-04-24T02:30:33;8.25;;;4.03;;
53044;SDS011;38930;52.766;6.884;2023-04-24T02:32:59;5.55;;;3.53;;
53044;SDS011;38930;52.766;6.884;2023-04-24T02:35:25;6.05;;;4.38;;
53044;SDS011;38930;52.766;6.884;2023-04-24T02:37:50;6.97;;;4.25;;
53044;SDS011;38930;52.766;6.884;2023-04-24T02:40:16;6.55;;;4.05;;
53044;SDS011;38930;52.766;6.884;2023-04-24T02:42:42;5.82;;;4.55;;
53044;SDS011;38930;52.766;6.884;2023-04-24T02:45:07;5.72;;;4.05;;
53044;SDS011;38930;52.766;6.884;2023-04-24T02:47:33;7.00;;;4.35;;
53044;SDS011;38930;52.766;6.884;2023-04-24T02:49:59;4.68;;;3.50;;
53044;SDS011;38930;52.766;6.884;2023-04-24T02:52:24;4.50;;;3.45;;
53044;SDS011;38930;52.766;6.884;2023-04-24T02:54:50;9.77;;;3.80;;
53044;SDS011;38930;52.766;6.884;2023-04-24T02:57:15;4.55;;;3.58;;
53044;SDS011;38930;52.766;6.884;2023-04-24T02:59:41;4.68;;;3.28;;
53044;SDS011;38930;52.766;6.884;2023-04-24T03:02:06;6.13;;;3.90;;
53044;SDS011;38930;52.766;6.884;2023-04-24T03:04:32;4.32;;;3.22;;
53044;SDS011;38930;52.766;6.884;2023-04-24T03:06:58;4.47;;;3.30;;
53044;SDS011;38930;52.766;6.884;2023-04-24T03:09:24;4.20;;;3.50;;
53044;SDS011;38930;52.766;6.884;2023-04-24T03:11:49;4.68;;;3.58;;
53044;SDS011;38930;52.766;6.884;2023-04-24T03:14:15;3.65;;;3.00;;
53044;SDS011;38930;52.766;6.884;2023-04-24T03:16:41;6.03;;;3.63;;
53044;SDS011;38930;52.766;6.884;2023-04-24T03:19:07;4.78;;;3.42;;
53044;SDS011;38930;52.766;6.884;2023-04-24T03:21:33;4.32;;;3.17;;
53044;SDS011;38930;52.766;6.884;2023-04-24T03:24:00;4.20;;;3.47;;
53044;SDS011;38930;52.766;6.884;2023-04-24T03:26:26;5.75;;;3.50;;
53044;SDS011;38930;52.766;6.884;2023-04-24T03:28:51;6.00;;;3.97;;
53044;SDS011;38930;52.766;6.884;2023-04-24T03:31:17;6.30;;;3.85;;
53044;SDS011;38930;52.766;6.884;2023-04-24T03:33:44;11.95;;;4.10;;
53044;SDS011;38930;52.766;6.884;2023-04-24T03:36:09;4.90;;;4.00;;
53044;SDS011;38930;52.766;6.884;2023-04-24T03:38:35;5.35;;;3.90;;
53044;SDS011;38930;52.766;6.884;2023-04-24T03:41:00;8.20;;;4.35;;
53044;SDS011;38930;52.766;6.884;2023-04-24T03:43:26;6.53;;;4.18;;
53044;SDS011;38930;52.766;6.884;2023-04-24T03:45:52;5.85;;;3.95;;
53044;SDS011;38930;52.766;6.884;2023-04-24T03:48:18;5.32;;;4.18;;
53044;SDS011;38930;52.766;6.884;2023-04-24T03:50:43;5.68;;;4.22;;
53044;SDS011;38930;52.766;6.884;2023-04-24T03:53:09;6.93;;;4.35;;
53044;SDS011;38930;52.766;6.884;2023-04-24T03:55:37;7.88;;;4.28;;
53044;SDS011;38930;52.766;6.884;2023-04-24T03:58:03;8.00;;;4.30;;
53044;SDS011;38930;52.766;6.884;2023-04-24T04:00:28;5.40;;;3.83;;
53044;SDS011;38930;52.766;6.884;2023-04-24T04:02:56;5.05;;;3.83;;
53044;SDS011;38930;52.766;6.884;2023-04-24T04:05:22;5.30;;;4.00;;
53044;SDS011;38930;52.766;6.884;2023-04-24T04:07:47;4.90;;;3.55;;
53044;SDS011;38930;52.766;6.884;2023-04-24T04:10:13;7.40;;;4.07;;
53044;SDS011;38930;52.766;6.884;2023-04-24T04:12:39;4.85;;;3.50;;
53044;SDS011;38930;52.766;6.884;2023-04-24T04:15:05;6.47;;;4.13;;
53044;SDS011;38930;52.766;6.884;2023-04-24T04:17:32;5.68;;;4.20;;
53044;SDS011;38930;52.766;6.884;2023-04-24T04:19:57;6.35;;;4.13;;
53044;SDS011;38930;52.766;6.884;2023-04-24T04:22:23;6.60;;;4.47;;
53044;SDS011;38930;52.766;6.884;2023-04-24T04:24:49;6.90;;;4.05;;
53044;SDS011;38930;52.766;6.884;2023-04-24T04:27:16;7.70;;;4.47;;
53044;SDS011;38930;52.766;6.884;2023-04-24T04:29:43;6.05;;;4.63;;
53044;SDS011;38930;52.766;6.884;2023-04-24T04:32:09;6.25;;;4.60;;
53044;SDS011;38930;52.766;6.884;2023-04-24T04:34:35;6.63;;;4.57;;
53044;SDS011;38930;52.766;6.884;2023-04-24T04:37:02;9.02;;;5.40;;
53044;SDS011;38930;52.766;6.884;2023-04-24T04:39:28;6.78;;;5.25;;
53044;SDS011;38930;52.766;6.884;2023-04-24T04:44:21;6.15;;;4.22;;
53044;SDS011;38930;52.766;6.884;2023-04-24T04:46:47;7.25;;;4.97;;
53044;SDS011;38930;52.766;6.884;2023-04-24T04:49:12;9.35;;;4.95;;
53044;SDS011;38930;52.766;6.884;2023-04-24T04:51:41;6.47;;;4.90;;
53044;SDS011;38930;52.766;6.884;2023-04-24T04:54:07;6.22;;;4.75;;
53044;SDS011;38930;52.766;6.884;2023-04-24T04:56:32;6.10;;;4.47;;
53044;SDS011;38930;52.766;6.884;2023-04-24T04:58:58;6.07;;;4.55;;
53044;SDS011;38930;52.766;6.884;2023-04-24T05:01:24;6.70;;;4.95;;
53044;SDS011;38930;52.766;6.884;2023-04-24T05:03:52;7.63;;;5.30;;
53044;SDS011;38930;52.766;6.884;2023-04-24T05:06:18;6.93;;;4.53;;
53044;SDS011;38930;52.766;6.884;2023-04-24T05:08:43;7.43;;;4.57;;
53044;SDS011;38930;52.766;6.884;2023-04-24T05:11:09;6.15;;;4.53;;
53044;SDS011;38930;52.766;6.884;2023-04-24T05:13:35;6.38;;;4.13;;
53044;SDS011;38930;52.766;6.884;2023-04-24T05:16:00;8.10;;;4.53;;
53044;SDS011;38930;52.766;6.884;2023-04-24T05:18:26;7.22;;;4.63;;
53044;SDS011;38930;52.766;6.884;2023-04-24T05:20:51;8.07;;;4.70;;
53044;SDS011;38930;52.766;6.884;2023-04-24T05:23:17;6.70;;;5.07;;
53044;SDS011;38930;52.766;6.884;2023-04-24T05:25:43;5.97;;;4.07;;
53044;SDS011;38930;52.766;6.884;2023-04-24T05:28:08;5.22;;;4.03;;
53044;SDS011;38930;52.766;6.884;2023-04-24T05:30:34;4.68;;;3.47;;
53044;SDS011;38930;52.766;6.884;2023-04-24T05:33:00;5.18;;;3.35;;
53044;SDS011;38930;52.766;6.884;2023-04-24T05:35:28;5.43;;;3.60;;
53044;SDS011;38930;52.766;6.884;2023-04-24T05:37:54;4.05;;;3.22;;
53044;SDS011;38930;52.766;6.884;2023-04-24T05:40:20;4.03;;;3.08;;
53044;SDS011;38930;52.766;6.884;2023-04-24T05:42:45;3.63;;;2.75;;
53044;SDS011;38930;52.766;6.884;2023-04-24T05:45:11;3.88;;;2.95;;
53044;SDS011;38930;52.766;6.884;2023-04-24T05:47:41;3.03;;;2.58;;
53044;SDS011;38930;52.766;6.884;2023-04-24T05:50:08;3.90;;;2.67;;
53044;SDS011;38930;52.766;6.884;2023-04-24T05:52:34;3.95;;;2.80;;
53044;SDS011;38930;52.766;6.884;2023-04-24T05:55:00;4.90;;;2.95;;
53044;SDS011;38930;52.766;6.884;2023-04-24T05:57:26;6.68;;;3.05;;
53044;SDS011;38930;52.766;6.884;2023-04-24T05:59:51;4.30;;;2.75;;
53044;SDS011;38930;52.766;6.884;2023-04-24T06:02:17;6.82;;;3.15;;
53044;SDS011;38930;52.766;6.884;2023-04-24T06:04:43;4.63;;;3.10;;
53044;SDS011;38930;52.766;6.884;2023-04-24T06:07:10;4.25;;;2.95;;
53044;SDS011;38930;52.766;6.884;2023-04-24T06:09:36;3.72;;;2.63;;
53044;SDS011;38930;52.766;6.884;2023-04-24T06:12:02;2.83;;;1.90;;
53044;SDS011;38930;52.766;6.884;2023-04-24T06:14:27;3.13;;;2.13;;
53044;SDS011;38930;52.766;6.884;2023-04-24T06:16:53;3.22;;;2.10;;
53044;SDS011;38930;52.766;6.884;2023-04-24T06:19:19;2.75;;;2.13;;
53044;SDS011;38930;52.766;6.884;2023-04-24T06:21:44;3.05;;;2.33;;
53044;SDS011;38930;52.766;6.884;2023-04-24T06:24:13;2.33;;;1.88;;
53044;SDS011;38930;52.766;6.884;2023-04-24T06:26:41;4.13;;;2.20;;
53044;SDS011;38930;52.766;6.884;2023-04-24T06:29:06;2.60;;;2.05;;
53044;SDS011;38930;52.766;6.884;2023-04-24T06:31:32;2.30;;;1.70;;
53044;SDS011;38930;52.766;6.884;2023-04-24T06:34:02;2.50;;;1.92;;
53044;SDS011;38930;52.766;6.884;2023-04-24T06:36:28;2.75;;;1.92;;
53044;SDS011;38930;52.766;6.884;2023-04-24T06:38:53;2.95;;;2.10;;
53044;SDS011;38930;52.766;6.884;2023-04-24T06:41:19;2.08;;;1.73;;
53044;SDS011;38930;52.766;6.884;2023-04-24T06:43:45;3.58;;;2.38;;
53044;SDS011;38930;52.766;6.884;2023-04-24T06:46:11;3.28;;;2.20;;
53044;SDS011;38930;52.766;6.884;2023-04-24T06:48:37;5.22;;;2.40;;
53044;SDS011;38930;52.766;6.884;2023-04-24T06:51:02;5.47;;;2.17;;
53044;SDS011;38930;52.766;6.884;2023-04-24T06:53:28;3.92;;;2.45;;
53044;SDS011;38930;52.766;6.884;2023-04-24T06:55:53;4.78;;;2.65;;
53044;SDS011;38930;52.766;6.884;2023-04-24T06:58:19;6.10;;;2.85;;
53044;SDS011;38930;52.766;6.884;2023-04-24T07:00:45;3.17;;;2.38;;
53044;SDS011;38930;52.766;6.884;2023-04-24T07:03:11;3.45;;;2.65;;
53044;SDS011;38930;52.766;6.884;2023-04-24T07:05:36;3.47;;;2.40;;
53044;SDS011;38930;52.766;6.884;2023-04-24T07:08:03;3.28;;;2.22;;
53044;SDS011;38930;52.766;6.884;2023-04-24T07:10:29;3.63;;;1.92;;
53044;SDS011;38930;52.766;6.884;2023-04-24T07:12:55;3.30;;;2.00;;
53044;SDS011;38930;52.766;6.884;2023-04-24T07:15:21;3.08;;;2.20;;
53044;SDS011;38930;52.766;6.884;2023-04-24T07:17:48;3.50;;;2.30;;
53044;SDS011;38930;52.766;6.884;2023-04-24T07:20:14;2.90;;;2.07;;
53044;SDS011;38930;52.766;6.884;2023-04-24T07:22:40;2.70;;;1.95;;
53044;SDS011;38930;52.766;6.884;2023-04-24T07:25:06;4.20;;;2.08;;
53044;SDS011;38930;52.766;6.884;2023-04-24T07:27:33;3.15;;;2.10;;
53044;SDS011;38930;52.766;6.884;2023-04-24T07:29:59;2.95;;;2.00;;
53044;SDS011;38930;52.766;6.884;2023-04-24T07:32:25;3.22;;;1.92;;
53044;SDS011;38930;52.766;6.884;2023-04-24T07:34:51;3.75;;;1.80;;
53044;SDS011;38930;52.766;6.884;2023-04-24T07:37:16;2.10;;;1.33;;
53044;SDS011;38930;52.766;6.884;2023-04-24T07:39:42;2.13;;;1.52;;
53044;SDS011;38930;52.766;6.884;2023-04-24T07:42:08;3.08;;;1.70;;
53044;SDS011;38930;52.766;6.884;2023-04-24T07:44:34;3.45;;;1.40;;
53044;SDS011;38930;52.766;6.884;2023-04-24T07:47:00;2.40;;;1.40;;
53044;SDS011;38930;52.766;6.884;2023-04-24T07:49:26;2.60;;;1.60;;
53044;SDS011;38930;52.766;6.884;2023-04-24T07:51:52;2.05;;;1.60;;
53044;SDS011;38930;52.766;6.884;2023-04-24T07:54:18;3.28;;;2.10;;
53044;SDS011;38930;52.766;6.884;2023-04-24T07:56:44;3.80;;;2.38;;
53044;SDS011;38930;52.766;6.884;2023-04-24T07:59:10;3.22;;;2.20;;
53044;SDS011;38930;52.766;6.884;2023-04-24T08:01:36;5.30;;;2.40;;
53044;SDS011;38930;52.766;6.884;2023-04-24T08:04:01;4.82;;;2.60;;
53044;SDS011;38930;52.766;6.884;2023-04-24T08:06:27;5.55;;;2.92;;
53044;SDS011;38930;52.766;6.884;2023-04-24T08:08:55;5.45;;;2.55;;
53044;SDS011;38930;52.766;6.884;2023-04-24T08:11:21;3.60;;;2.63;;
53044;SDS011;38930;52.766;6.884;2023-04-24T08:13:47;3.13;;;2.33;;
53044;SDS011;38930;52.766;6.884;2023-04-24T08:16:12;3.65;;;2.58;;
53044;SDS011;38930;52.766;6.884;2023-04-24T08:18:38;2.78;;;2.28;;
53044;SDS011;38930;52.766;6.884;2023-04-24T08:21:04;2.35;;;1.85;;
53044;SDS011;38930;52.766;6.884;2023-04-24T08:23:30;3.22;;;2.40;;
53044;SDS011;38930;52.766;6.884;2023-04-24T08:25:55;3.58;;;2.30;;
53044;SDS011;38930;52.766;6.884;2023-04-24T08:28:22;3.90;;;2.10;;
53044;SDS011;38930;52.766;6.884;2023-04-24T08:30:47;3.08;;;2.17;;
53044;SDS011;38930;52.766;6.884;2023-04-24T08:33:13;3.72;;;2.60;;
53044;SDS011;38930;52.766;6.884;2023-04-24T08:35:39;3.08;;;2.10;;
53044;SDS011;38930;52.766;6.884;2023-04-24T08:38:05;3.45;;;1.85;;
53044;SDS011;38930;52.766;6.884;2023-04-24T08:40:31;4.43;;;1.90;;
53044;SDS011;38930;52.766;6.884;2023-04-24T08:43:00;3.47;;;1.42;;
53044;SDS011;38930;52.766;6.884;2023-04-24T08:45:26;2.38;;;1.77;;
53044;SDS011;38930;52.766;6.884;2023-04-24T08:47:52;4.53;;;1.60;;
53044;SDS011;38930;52.766;6.884;2023-04-24T08:50:22;2.70;;;1.70;;
53044;SDS011;38930;52.766;6.884;2023-04-24T08:52:49;3.05;;;1.70;;
53044;SDS011;38930;52.766;6.884;2023-04-24T08:55:16;1.98;;;1.70;;
53044;SDS011;38930;52.766;6.884;2023-04-24T08:57:44;5.97;;;2.00;;
53044;SDS011;38930;52.766;6.884;2023-04-24T09:00:10;3.88;;;1.52;;
53044;SDS011;38930;52.766;6.884;2023-04-24T09:02:39;3.58;;;2.30;;
53044;SDS011;38930;52.766;6.884;2023-04-24T09:05:07;5.45;;;2.70;;
53044;SDS011;38930;52.766;6.884;2023-04-24T09:10:01;8.35;;;3.92;;
53044;SDS011;38930;52.766;6.884;2023-04-24T09:12:28;7.32;;;3.97;;
53044;SDS011;38930;52.766;6.884;2023-04-24T09:14:53;6.90;;;4.18;;
53044;SDS011;38930;52.766;6.884;2023-04-24T09:17:21;11.55;;;4.70;;
53044;SDS011;38930;52.766;6.884;2023-04-24T09:19:48;11.30;;;5.20;;
53044;SDS011;38930;52.766;6.884;2023-04-24T09:22:13;10.18;;;4.85;;
53044;SDS011;38930;52.766;6.884;2023-04-24T09:24:40;9.00;;;4.78;;
53044;SDS011;38930;52.766;6.884;2023-04-24T09:27:06;12.27;;;5.82;;
53044;SDS011;38930;52.766;6.884;2023-04-24T09:29:32;12.07;;;5.67;;
53044;SDS011;38930;52.766;6.884;2023-04-24T09:31:58;9.63;;;5.90;;
53044;SDS011;38930;52.766;6.884;2023-04-24T09:34:24;10.10;;;5.50;;
53044;SDS011;38930;52.766;6.884;2023-04-24T09:36:51;10.35;;;5.38;;
53044;SDS011;38930;52.766;6.884;2023-04-24T09:39:19;11.25;;;5.93;;
53044;SDS011;38930;52.766;6.884;2023-04-24T09:44:21;11.98;;;7.13;;
53044;SDS011;38930;52.766;6.884;2023-04-24T09:46:57;16.13;;;7.85;;
53044;SDS011;38930;52.766;6.884;2023-04-24T09:49:26;15.50;;;8.70;;
53044;SDS011;38930;52.766;6.884;2023-04-24T09:52:03;20.63;;;9.30;;
53044;SDS011;38930;52.766;6.884;2023-04-24T09:54:30;16.13;;;8.80;;
53044;SDS011;38930;52.766;6.884;2023-04-24T09:56:56;17.30;;;8.68;;
53044;SDS011;38930;52.766;6.884;2023-04-24T09:59:22;15.27;;;8.30;;
53044;SDS011;38930;52.766;6.884;2023-04-24T10:01:48;19.05;;;9.77;;
53044;SDS011;38930;52.766;6.884;2023-04-24T10:06:47;16.30;;;8.45;;
53044;SDS011;38930;52.766;6.884;2023-04-24T10:09:14;19.13;;;9.90;;
53044;SDS011;38930;52.766;6.884;2023-04-24T10:11:48;14.05;;;8.43;;
53044;SDS011;38930;52.766;6.884;2023-04-24T10:14:19;15.57;;;8.25;;
53044;SDS011;38930;52.766;6.884;2023-04-24T10:16:49;12.55;;;7.88;;
53044;SDS011;38930;52.766;6.884;2023-04-24T10:19:17;15.80;;;8.02;;
53044;SDS011;38930;52.766;6.884;2023-04-24T10:21:43;11.65;;;6.43;;
53044;SDS011;38930;52.766;6.884;2023-04-24T10:24:15;13.23;;;7.07;;
53044;SDS011;38930;52.766;6.884;2023-04-24T10:26:42;13.43;;;7.43;;
53044;SDS011;38930;52.766;6.884;2023-04-24T10:29:11;15.32;;;6.63;;
53044;SDS011;38930;52.766;6.884;2023-04-24T10:31:38;12.38;;;7.13;;
53044;SDS011;38930;52.766;6.884;2023-04-24T10:34:08;10.13;;;5.57;;
53044;SDS011;38930;52.766;6.884;2023-04-24T10:36:35;10.80;;;6.35;;
53044;SDS011;38930;52.766;6.884;2023-04-24T10:39:06;13.15;;;6.72;;
53044;SDS011;38930;52.766;6.884;2023-04-24T10:41:36;10.77;;;6.90;;
53044;SDS011;38930;52.766;6.884;2023-04-24T10:46:35;12.88;;;6.93;;
53044;SDS011;38930;52.766;6.884;2023-04-24T10:49:05;8.98;;;5.75;;
53044;SDS011;38930;52.766;6.884;2023-04-24T10:54:25;8.48;;;4.80;;
53044;SDS011;38930;52.766;6.884;2023-04-24T11:02:55;17.83;;;6.28;;
53044;SDS011;38930;52.766;6.884;2023-04-24T11:08:14;7.88;;;3.70;;
53044;SDS011;38930;52.766;6.884;2023-04-24T11:10:59;6.82;;;3.50;;
53044;SDS011;38930;52.766;6.884;2023-04-24T11:19:00;5.13;;;2.65;;
53044;SDS011;38930;52.766;6.884;2023-04-24T11:21:36;8.00;;;3.00;;
53044;SDS011;38930;52.766;6.884;2023-04-24T11:24:23;7.57;;;3.50;;
53044;SDS011;38930;52.766;6.884;2023-04-24T11:26:53;11.48;;;3.53;;
53044;SDS011;38930;52.766;6.884;2023-04-24T11:29:20;8.65;;;3.20;;
53044;SDS011;38930;52.766;6.884;2023-04-24T11:31:46;9.07;;;2.88;;
53044;SDS011;38930;52.766;6.884;2023-04-24T11:34:16;6.00;;;2.72;;
53044;SDS011;38930;52.766;6.884;2023-04-24T11:36:43;6.82;;;2.97;;
53044;SDS011;38930;52.766;6.884;2023-04-24T11:39:09;8.50;;;3.03;;
53044;SDS011;38930;52.766;6.884;2023-04-24T11:41:36;6.70;;;2.90;;
53044;SDS011;38930;52.766;6.884;2023-04-24T11:44:02;6.93;;;3.20;;
53044;SDS011;38930;52.766;6.884;2023-04-24T11:46:30;6.82;;;2.60;;
53044;SDS011;38930;52.766;6.884;2023-04-24T11:48:57;5.20;;;2.53;;
53044;SDS011;38930;52.766;6.884;2023-04-24T11:51:24;4.85;;;2.42;;
53044;SDS011;38930;52.766;6.884;2023-04-24T11:53:51;9.35;;;2.60;;
53044;SDS011;38930;52.766;6.884;2023-04-24T11:56:21;13.73;;;2.75;;
53044;SDS011;38930;52.766;6.884;2023-04-24T11:58:47;10.73;;;2.83;;
53044;SDS011;38930;52.766;6.884;2023-04-24T12:01:13;5.43;;;2.30;;
53044;SDS011;38930;52.766;6.884;2023-04-24T12:03:40;9.43;;;2.40;;
53044;SDS011;38930;52.766;6.884;2023-04-24T12:06:09;8.27;;;2.10;;
53044;SDS011;38930;52.766;6.884;2023-04-24T12:08:36;4.43;;;2.10;;
53044;SDS011;38930;52.766;6.884;2023-04-24T12:11:03;4.72;;;2.00;;
53044;SDS011;38930;52.766;6.884;2023-04-24T12:13:35;3.95;;;2.00;;
53044;SDS011;38930;52.766;6.884;2023-04-24T12:16:02;8.80;;;2.50;;
53044;SDS011;38930;52.766;6.884;2023-04-24T12:18:29;10.57;;;2.80;;
53044;SDS011;38930;52.766;6.884;2023-04-24T12:20:55;3.92;;;2.20;;
53044;SDS011;38930;52.766;6.884;2023-04-24T12:23:42;6.72;;;2.33;;
53044;SDS011;38930;52.766;6.884;2023-04-24T12:26:09;7.20;;;2.38;;
53044;SDS011;38930;52.766;6.884;2023-04-24T12:28:35;11.25;;;2.75;;
53044;SDS011;38930;52.766;6.884;2023-04-24T12:31:02;9.15;;;2.28;;
53044;SDS011;38930;52.766;6.884;2023-04-24T12:33:31;7.85;;;2.55;;
53044;SDS011;38930;52.766;6.884;2023-04-24T12:35:58;5.07;;;2.53;;
53044;SDS011;38930;52.766;6.884;2023-04-24T12:38:27;10.75;;;2.80;;
53044;SDS011;38930;52.766;6.884;2023-04-24T12:41:08;6.25;;;2.55;;
53044;SDS011;38930;52.766;6.884;2023-04-24T12:43:35;5.50;;;2.67;;
53044;SDS011;38930;52.766;6.884;2023-04-24T12:46:01;5.82;;;2.47;;
53044;SDS011;38930;52.766;6.884;2023-04-24T12:48:28;10.13;;;3.38;;
53044;SDS011;38930;52.766;6.884;2023-04-24T12:50:54;9.18;;;4.00;;
53044;SDS011;38930;52.766;6.884;2023-04-24T12:53:21;12.20;;;4.63;;
53044;SDS011;38930;52.766;6.884;2023-04-24T12:55:47;15.35;;;5.75;;
53044;SDS011;38930;52.766;6.884;2023-04-24T12:58:18;9.63;;;3.70;;
53044;SDS011;38930;52.766;6.884;2023-04-24T13:00:45;10.27;;;3.72;;
53044;SDS011;38930;52.766;6.884;2023-04-24T13:03:11;7.40;;;3.07;;
53044;SDS011;38930;52.766;6.884;2023-04-24T13:05:37;7.07;;;2.50;;
53044;SDS011;38930;52.766;6.884;2023-04-24T13:08:03;8.75;;;2.35;;
53044;SDS011;38930;52.766;6.884;2023-04-24T13:10:29;5.20;;;2.33;;
53044;SDS011;38930;52.766;6.884;2023-04-24T13:12:55;4.85;;;1.98;;
53044;SDS011;38930;52.766;6.884;2023-04-24T13:15:20;3.55;;;2.10;;
53044;SDS011;38930;52.766;6.884;2023-04-24T13:17:46;3.45;;;1.75;;
53044;SDS011;38930;52.766;6.884;2023-04-24T13:20:11;1.98;;;1.50;;
53044;SDS011;38930;52.766;6.884;2023-04-24T13:22:37;3.83;;;1.80;;
53044;SDS011;38930;52.766;6.884;2023-04-24T13:25:03;4.60;;;1.50;;
53044;SDS011;38930;52.766;6.884;2023-04-24T13:27:30;2.85;;;1.35;;
53044;SDS011;38930;52.766;6.884;2023-04-24T13:29:56;6.47;;;1.33;;
53044;SDS011;38930;52.766;6.884;2023-04-24T13:32:22;2.35;;;1.25;;
53044;SDS011;38930;52.766;6.884;2023-04-24T13:34:47;2.83;;;1.40;;
53044;SDS011;38930;52.766;6.884;2023-04-24T13:37:13;3.00;;;1.20;;
53044;SDS011;38930;52.766;6.884;2023-04-24T13:39:40;4.05;;;1.70;;
53044;SDS011;38930;52.766;6.884;2023-04-24T13:42:06;3.47;;;1.30;;
53044;SDS011;38930;52.766;6.884;2023-04-24T13:44:32;2.03;;;1.27;;
53044;SDS011;38930;52.766;6.884;2023-04-24T13:46:57;3.00;;;1.42;;
53044;SDS011;38930;52.766;6.884;2023-04-24T13:49:24;5.32;;;1.27;;
53044;SDS011;38930;52.766;6.884;2023-04-24T13:51:50;5.25;;;1.40;;
53044;SDS011;38930;52.766;6.884;2023-04-24T13:54:17;3.13;;;1.50;;
53044;SDS011;38930;52.766;6.884;2023-04-24T13:56:42;2.13;;;1.35;;
53044;SDS011;38930;52.766;6.884;2023-04-24T13:59:08;6.55;;;1.63;;
53044;SDS011;38930;52.766;6.884;2023-04-24T14:01:34;2.20;;;1.38;;
53044;SDS011;38930;52.766;6.884;2023-04-24T14:04:00;3.65;;;1.58;;
53044;SDS011;38930;52.766;6.884;2023-04-24T14:06:25;3.05;;;1.42;;
53044;SDS011;38930;52.766;6.884;2023-04-24T14:08:51;4.68;;;1.52;;
53044;SDS011;38930;52.766;6.884;2023-04-24T14:11:17;6.85;;;1.73;;
53044;SDS011;38930;52.766;6.884;2023-04-24T14:13:43;4.93;;;1.60;;
53044;SDS011;38930;52.766;6.884;2023-04-24T14:16:09;3.97;;;1.90;;
53044;SDS011;38930;52.766;6.884;2023-04-24T14:18:35;6.70;;;1.55;;
53044;SDS011;38930;52.766;6.884;2023-04-24T14:21:02;5.75;;;1.65;;
53044;SDS011;38930;52.766;6.884;2023-04-24T14:23:31;7.32;;;1.88;;
53044;SDS011;38930;52.766;6.884;2023-04-24T14:25:57;7.65;;;2.42;;
53044;SDS011;38930;52.766;6.884;2023-04-24T14:28:23;3.20;;;1.40;;
53044;SDS011;38930;52.766;6.884;2023-04-24T14:30:49;1.90;;;1.20;;
53044;SDS011;38930;52.766;6.884;2023-04-24T14:33:15;3.53;;;1.33;;
53044;SDS011;38930;52.766;6.884;2023-04-24T14:35:41;5.00;;;1.42;;
53044;SDS011;38930;52.766;6.884;2023-04-24T14:38:07;2.63;;;1.42;;
53044;SDS011;38930;52.766;6.884;2023-04-24T14:40:34;6.10;;;1.60;;
53044;SDS011;38930;52.766;6.884;2023-04-24T14:43:00;4.33;;;1.77;;
53044;SDS011;38930;52.766;6.884;2023-04-24T14:45:26;5.20;;;2.17;;
53044;SDS011;38930;52.766;6.884;2023-04-24T14:47:52;4.07;;;1.60;;
53044;SDS011;38930;52.766;6.884;2023-04-24T14:50:18;8.68;;;3.28;;
53044;SDS011;38930;52.766;6.884;2023-04-24T14:52:43;10.63;;;2.33;;
53044;SDS011;38930;52.766;6.884;2023-04-24T14:55:09;5.70;;;2.10;;
53044;SDS011;38930;52.766;6.884;2023-04-24T14:57:35;4.82;;;2.20;;
53044;SDS011;38930;52.766;6.884;2023-04-24T15:00:02;6.60;;;2.28;;
53044;SDS011;38930;52.766;6.884;2023-04-24T15:02:33;10.02;;;3.05;;
53044;SDS011;38930;52.766;6.884;2023-04-24T15:04:59;7.55;;;2.60;;
53044;SDS011;38930;52.766;6.884;2023-04-24T15:07:24;8.13;;;2.25;;
53044;SDS011;38930;52.766;6.884;2023-04-24T15:09:50;8.70;;;2.10;;
53044;SDS011;38930;52.766;6.884;2023-04-24T15:12:16;9.70;;;3.53;;
53044;SDS011;38930;52.766;6.884;2023-04-24T15:14:41;7.05;;;2.67;;